createdAt,value
2019-04-25T00:01:13.993Z,84.00
2019-04-25T00:03:43.698Z,84.70
2019-04-25T00:06:14.485Z,84.30
2019-04-25T00:08:44.108Z,84.00
2019-04-25T00:11:13.035Z,83.60
2019-04-25T00:13:42.788Z,83.80
2019-04-25T00:16:12.778Z,84.20
2019-04-25T00:18:42.776Z,83.70
2019-04-25T00:21:22.110Z,84.60
2019-04-25T00:23:55.667Z,84.80
2019-04-25T00:26:32.860Z,84.80
2019-04-25T00:29:01.970Z,85.40
2019-04-25T00:31:32.019Z,84.00
2019-04-25T00:34:02.195Z,84.60
2019-04-25T00:36:31.878Z,84.30
2019-04-25T00:39:01.969Z,84.10
2019-04-25T00:41:32.059Z,84.10
2019-04-25T00:44:02.420Z,84.10
2019-04-25T00:46:32.182Z,84.20
2019-04-25T00:49:02.442Z,83.50
2019-04-25T00:51:31.782Z,83.40
2019-04-25T00:54:02.413Z,83.80
2019-04-25T00:56:32.192Z,83.70
2019-04-25T00:59:07.252Z,83.90
2019-04-25T01:01:47.930Z,84.50
2019-04-25T01:04:17.504Z,83.10
2019-04-25T01:06:46.191Z,84.10
2019-04-25T01:09:17.164Z,84.20
2019-04-25T01:11:45.971Z,83.70
2019-04-25T01:14:14.687Z,83.40
2019-04-25T01:16:43.399Z,83.80
2019-04-25T01:19:13.408Z,83.80
2019-04-25T01:21:43.902Z,83.80
2019-04-25T01:24:14.130Z,83.60
2019-04-25T01:26:43.890Z,83.40
2019-04-25T01:29:13.598Z,83.90
2019-04-25T01:31:43.424Z,84.70
2019-04-25T01:34:14.252Z,83.90
2019-04-25T01:36:50.808Z,83.80
2019-04-25T01:39:47.740Z,83.60
2019-04-25T01:42:33.785Z,83.80
2019-04-25T01:45:06.717Z,83.90
2019-04-25T01:47:35.460Z,84.00
2019-04-25T01:50:04.605Z,84.20
2019-04-25T01:52:33.515Z,84.10
2019-04-25T01:55:03.500Z,84.20
2019-04-25T01:57:33.711Z,84.10
2019-04-25T02:00:03.914Z,84.20
2019-04-25T02:02:33.597Z,84.50
2019-04-25T02:05:04.759Z,84.50
2019-04-25T02:07:33.687Z,84.30
2019-04-25T02:10:03.754Z,84.00
2019-04-25T02:12:41.596Z,84.00
2019-04-25T02:15:13.735Z,83.90
2019-04-25T02:17:43.882Z,84.00
2019-04-25T02:20:13.964Z,84.50
2019-04-25T02:22:44.193Z,84.30
2019-04-25T02:25:13.345Z,83.40
2019-04-25T02:27:41.995Z,83.80
2019-04-25T02:30:11.664Z,83.40
2019-04-25T02:32:40.324Z,83.30
2019-04-25T02:35:09.905Z,83.70
2019-04-25T02:37:38.728Z,84.00
2019-04-25T02:40:08.447Z,83.60
2019-04-25T02:42:37.623Z,83.50
2019-04-25T02:45:16.604Z,84.10
2019-04-25T02:48:05.669Z,83.90
2019-04-25T02:50:50.181Z,83.50
2019-04-25T02:53:39.213Z,84.10
2019-04-25T02:56:26.034Z,84.10
2019-04-25T02:58:38.151Z,84.10
2019-04-25T03:01:17.942Z,84.30
2019-04-25T03:03:38.714Z,84.30
2019-04-25T03:06:09.378Z,84.60
2019-04-25T03:08:37.746Z,84.30
2019-04-25T03:11:07.873Z,84.10
2019-04-25T03:13:36.708Z,83.90
2019-04-25T03:16:08.861Z,83.80
2019-04-25T03:18:40.680Z,84.90
2019-04-25T03:21:17.513Z,84.90
2019-04-25T03:23:46.814Z,83.70
2019-04-25T03:26:15.427Z,84.10
2019-04-25T03:28:44.258Z,83.70
2019-04-25T03:31:18.579Z,84.20
2019-04-25T03:33:45.919Z,84.00
2019-04-25T03:36:16.711Z,83.40
2019-04-25T03:38:44.325Z,83.40
2019-04-25T03:41:14.651Z,83.70
2019-04-25T03:43:44.210Z,83.90
2019-04-25T03:46:14.377Z,84.20
2019-04-25T03:48:44.127Z,84.10
2019-04-25T03:51:15.661Z,83.80
2019-04-25T03:53:44.654Z,83.70
2019-04-25T03:56:14.616Z,83.60
2019-04-25T03:58:43.952Z,83.60
2019-04-25T04:01:13.835Z,83.60
2019-04-25T04:03:43.989Z,84.90
2019-04-25T04:06:15.249Z,84.20
2019-04-25T04:08:44.338Z,84.70
2019-04-25T04:11:14.599Z,83.90
2019-04-25T04:13:44.839Z,84.30
2019-04-25T04:16:15.786Z,84.50
2019-04-25T04:18:46.362Z,84.50
2019-04-25T04:21:24.855Z,84.90
2019-04-25T04:24:11.791Z,84.20
2019-04-25T04:26:40.509Z,84.30
2019-04-25T04:29:10.025Z,84.20
2019-04-25T04:31:38.983Z,84.00
2019-04-25T04:34:08.539Z,84.10
2019-04-25T04:36:37.575Z,84.50
2019-04-25T04:39:07.786Z,84.50
2019-04-25T04:41:37.030Z,83.90
2019-04-25T04:44:05.728Z,84.00
2019-04-25T04:46:34.348Z,84.00
2019-04-25T04:49:03.865Z,83.30
2019-04-25T04:51:33.600Z,83.70
2019-04-25T04:54:03.408Z,82.90
2019-04-25T04:56:34.058Z,83.40
2019-04-25T04:59:03.698Z,83.20
2019-04-25T05:01:35.338Z,82.40
2019-04-25T05:04:10.694Z,83.00
2019-04-25T05:06:48.035Z,82.80
2019-04-25T05:09:20.657Z,82.70
2019-04-25T05:11:49.562Z,82.40
2019-04-25T05:14:18.239Z,81.30
2019-04-25T05:16:49.474Z,80.80
2019-04-25T05:19:18.051Z,80.60
2019-04-25T05:21:46.830Z,80.80
2019-04-25T05:24:16.419Z,81.80
2019-04-25T05:26:45.698Z,79.90
2019-04-25T05:29:19.769Z,79.20
2019-04-25T05:31:48.096Z,79.40
2019-04-25T05:34:17.230Z,78.50
2019-04-25T05:36:46.968Z,78.80
2019-04-25T05:39:17.743Z,79.00
2019-04-25T05:41:56.477Z,78.40
2019-04-25T05:44:27.338Z,77.90
2019-04-25T05:46:55.657Z,78.10
2019-04-25T05:49:25.212Z,77.10
2019-04-25T05:51:54.458Z,76.20
2019-04-25T05:54:24.793Z,76.50
2019-04-25T05:57:10.395Z,76.30
2019-04-25T05:59:38.959Z,76.50
2019-04-25T06:02:07.568Z,75.60
2019-04-25T06:04:36.248Z,75.80
2019-04-25T06:07:05.707Z,76.40
2019-04-25T06:09:54.430Z,75.00
2019-04-25T06:12:53.555Z,75.20
2019-04-25T06:15:26.228Z,74.90
2019-04-25T06:18:17.062Z,75.20
2019-04-25T06:20:45.791Z,75.90
2019-04-25T06:23:32.308Z,74.70
2019-04-25T06:26:16.077Z,74.70
2019-04-25T06:28:34.522Z,75.30
2019-04-25T06:31:04.449Z,75.20
2019-04-25T06:33:33.913Z,74.70
2019-04-25T06:36:04.163Z,74.00
2019-04-25T06:38:33.498Z,73.00
2019-04-25T06:41:03.577Z,73.60
2019-04-25T06:43:34.106Z,73.80
2019-04-25T06:46:40.125Z,73.20
2019-04-25T06:49:13.480Z,72.90
2019-04-25T06:51:54.207Z,73.50
2019-04-25T06:54:25.279Z,73.60
2019-04-25T06:56:53.632Z,74.70
2019-04-25T06:59:25.566Z,74.30
2019-04-25T07:01:54.141Z,73.80
2019-04-25T07:04:26.205Z,74.10
2019-04-25T07:06:53.792Z,74.20
2019-04-25T07:09:24.427Z,74.40
2019-04-25T07:11:53.883Z,75.10
2019-04-25T07:14:25.492Z,75.10
2019-04-25T07:16:53.318Z,76.00
2019-04-25T07:19:24.770Z,75.50
2019-04-25T07:21:54.138Z,74.70
2019-04-25T07:24:24.837Z,74.80
2019-04-25T07:27:11.171Z,74.80
2019-04-25T07:29:48.948Z,74.60
2019-04-25T07:32:30.843Z,73.80
2019-04-25T07:35:03.631Z,74.40
2019-04-25T07:37:37.225Z,73.70
2019-04-25T07:40:06.399Z,73.90
2019-04-25T07:42:35.419Z,72.60
2019-04-25T07:45:06.076Z,73.60
2019-04-25T07:47:35.476Z,73.30
2019-04-25T07:50:05.740Z,73.10
2019-04-25T07:52:35.488Z,73.50
2019-04-25T07:55:04.792Z,73.30
2019-04-25T07:57:34.585Z,73.60
2019-04-25T08:00:05.134Z,72.90
2019-04-25T08:02:34.171Z,72.80
2019-04-25T08:05:10.958Z,71.70
2019-04-25T08:07:39.948Z,72.00
2019-04-25T08:10:09.173Z,71.40
2019-04-25T08:12:39.357Z,70.80
2019-04-25T08:15:20.239Z,70.70
2019-04-25T08:18:00.728Z,70.20
2019-04-25T08:20:30.482Z,70.20
2019-04-25T08:23:00.673Z,69.90
2019-04-25T08:25:29.389Z,70.00
2019-04-25T08:27:58.081Z,68.60
2019-04-25T08:30:27.090Z,68.60
2019-04-25T08:32:55.717Z,68.30
2019-04-25T08:35:24.380Z,67.50
2019-04-25T08:37:53.764Z,66.30
2019-04-25T08:40:23.761Z,66.90
2019-04-25T08:42:53.785Z,67.00
2019-04-25T08:45:25.102Z,65.30
2019-04-25T08:47:53.960Z,66.20
2019-04-25T08:50:37.525Z,64.80
2019-04-25T08:53:04.882Z,64.90
2019-04-25T08:55:48.319Z,64.20
2019-04-25T08:58:29.598Z,65.40
2019-04-25T09:01:06.780Z,64.30
2019-04-25T09:03:44.440Z,63.90
2019-04-25T09:06:14.221Z,63.20
2019-04-25T09:08:45.370Z,64.10
2019-04-25T09:11:14.007Z,63.70
2019-04-25T09:13:43.838Z,62.80
2019-04-25T09:16:13.822Z,62.10
2019-04-25T09:18:44.975Z,61.30
2019-04-25T09:21:14.565Z,62.70
2019-04-25T09:23:43.728Z,62.60
2019-04-25T09:26:14.285Z,61.40
2019-04-25T09:28:45.306Z,61.30
2019-04-25T09:31:14.061Z,61.70
2019-04-25T09:33:45.105Z,60.80
2019-04-25T09:36:14.182Z,61.10
2019-04-25T09:38:47.980Z,61.40
2019-04-25T09:41:15.256Z,61.80
2019-04-25T09:43:45.707Z,60.70
2019-04-25T09:46:20.084Z,59.40
2019-04-25T09:49:08.368Z,59.40
2019-04-25T09:52:44.355Z,58.90
2019-04-25T09:56:39.063Z,59.20
2019-04-25T10:04:14.784Z,57.70
2019-04-25T10:04:46.382Z,58.80
2019-04-25T10:07:24.657Z,57.90
2019-04-25T10:30:23.067Z,55.40
2019-04-25T10:32:59.496Z,55.30
2019-04-25T10:35:48.333Z,55.60
2019-04-25T11:18:58.462Z,55.20
2019-04-25T11:21:27.289Z,55.10
2019-04-25T11:23:56.349Z,55.00
2019-04-25T11:26:25.284Z,55.00
2019-04-25T11:28:56.465Z,54.00
2019-04-25T11:31:30.009Z,54.20
2019-04-25T11:33:58.979Z,53.90
2019-04-25T11:36:27.831Z,53.50
2019-04-25T11:39:23.926Z,53.70
2019-04-25T12:08:28.201Z,54.00
2019-04-25T12:20:23.806Z,54.30
2019-04-25T12:23:04.146Z,54.80
2019-04-25T14:06:54.251Z,76.90
2019-04-25T14:09:24.885Z,76.90
2019-04-25T14:11:54.419Z,76.70
2019-04-25T14:14:23.004Z,77.50
2019-04-25T14:17:03.011Z,78.60
2019-04-25T14:19:57.304Z,78.50
2019-04-25T14:22:27.581Z,78.30
2019-04-25T14:24:56.525Z,78.20
2019-04-25T14:27:26.296Z,78.70
2019-04-25T14:29:55.553Z,79.20
2019-04-25T14:32:28.906Z,79.00
2019-04-25T14:34:58.167Z,78.60
2019-04-25T14:37:32.319Z,76.80
2019-04-25T14:39:59.491Z,75.70
2019-04-25T14:42:28.658Z,76.20
2019-04-25T14:45:01.394Z,74.80
2019-04-25T14:47:30.029Z,74.70
2019-04-25T14:49:58.639Z,75.30
2019-04-25T14:52:29.622Z,75.20
2019-04-25T14:55:05.660Z,74.50
2019-04-25T14:57:35.031Z,74.70
2019-04-25T15:00:05.669Z,74.60
2019-04-25T15:02:36.883Z,75.90
2019-04-25T15:05:05.446Z,75.20
2019-04-25T15:07:34.340Z,75.00
2019-04-25T15:10:02.899Z,74.00
2019-04-25T15:12:31.821Z,74.60
2019-04-25T15:15:00.694Z,73.60
2019-04-25T15:17:29.681Z,74.00
2019-04-25T15:19:58.259Z,73.50
2019-04-25T15:22:27.930Z,73.90
2019-04-25T15:24:59.650Z,72.50
2019-04-25T15:27:30.096Z,72.10
2019-04-25T15:29:59.024Z,72.50
2019-04-25T15:32:31.036Z,71.40
2019-04-25T15:34:59.774Z,70.90
2019-04-25T15:37:36.471Z,69.20
2019-04-25T15:40:19.173Z,69.30
2019-04-25T15:42:55.577Z,70.40
2019-04-25T15:45:38.288Z,69.00
2019-04-25T15:48:08.256Z,67.10
2019-04-25T15:50:37.095Z,65.50
2019-04-25T15:53:06.004Z,65.60
2019-04-25T15:55:34.876Z,66.10
2019-04-25T15:58:04.046Z,65.80
2019-04-25T16:00:37.065Z,66.00
2019-04-25T16:03:07.261Z,65.00
2019-04-25T16:05:36.178Z,65.40
2019-04-25T16:08:04.795Z,65.40
2019-04-25T16:10:34.013Z,65.60
2019-04-25T16:13:02.628Z,66.00
2019-04-25T16:15:31.214Z,66.20
2019-04-25T16:17:59.878Z,66.00
2019-04-25T16:20:31.429Z,67.20
2019-04-25T16:23:00.128Z,67.80
2019-04-25T16:25:29.848Z,67.30
2019-04-25T16:27:58.442Z,67.40
2019-04-25T16:30:31.219Z,67.60
2019-04-25T16:32:59.767Z,67.50
2019-04-25T16:35:28.579Z,66.20
2019-04-25T16:37:58.487Z,66.70
2019-04-25T16:40:27.540Z,66.90
2019-04-25T16:42:59.272Z,66.60
2019-04-25T16:45:28.937Z,67.20
2019-04-25T16:47:58.281Z,66.50
2019-04-25T16:50:27.277Z,67.80
2019-04-25T16:52:55.832Z,67.20
2019-04-25T16:55:24.606Z,66.90
2019-04-25T16:57:53.420Z,67.40
2019-04-25T17:00:36.514Z,67.90
2019-04-25T17:03:05.121Z,67.70
2019-04-25T17:05:34.687Z,68.40
2019-04-25T17:08:03.255Z,68.00
2019-04-25T17:10:32.787Z,69.10
2019-04-25T17:13:01.511Z,69.00
2019-04-25T17:15:36.771Z,69.20
2019-04-25T17:18:08.615Z,69.40
2019-04-25T17:20:41.809Z,70.30
2019-04-25T17:23:12.104Z,71.50
2019-04-25T17:25:40.678Z,72.30
2019-04-25T17:28:12.546Z,72.80
2019-04-25T17:30:42.789Z,73.10
2019-04-25T17:33:17.896Z,72.80
2019-04-25T17:36:04.245Z,71.40
2019-04-25T17:38:42.444Z,71.60
2019-04-25T17:41:11.028Z,72.30
2019-04-25T17:43:39.630Z,72.50
2019-04-25T17:46:10.987Z,71.90
2019-04-25T17:48:40.512Z,72.00
2019-04-25T17:51:09.190Z,71.80
2019-04-25T17:53:39.024Z,74.30
2019-04-25T17:56:08.244Z,75.50
2019-04-25T17:58:37.258Z,76.20
2019-04-25T18:01:07.859Z,76.20
2019-04-25T18:03:37.295Z,73.40
2019-04-25T18:06:06.214Z,71.90
2019-04-25T18:08:35.627Z,70.90
2019-04-25T18:24:32.114Z,69.50
2019-04-25T18:27:12.651Z,67.90
2019-04-25T18:29:41.635Z,67.70
2019-04-25T18:32:10.426Z,67.60
2019-04-25T18:34:45.161Z,68.10
2019-04-25T18:37:37.199Z,68.00
2019-04-25T18:40:40.536Z,67.50
2019-04-25T18:43:14.021Z,67.40
2019-04-25T18:45:46.509Z,67.40
2019-04-25T18:48:16.574Z,67.30
2019-04-25T18:50:46.729Z,67.20
2019-04-25T18:53:35.171Z,67.30
2019-04-25T18:56:22.715Z,68.50
2019-04-25T18:59:19.060Z,69.00
2019-04-25T19:02:13.259Z,68.90
2019-04-25T19:05:07.139Z,69.20
2019-04-25T19:07:36.282Z,68.80
2019-04-25T19:10:06.039Z,68.30
2019-04-25T19:12:36.171Z,69.40
2019-04-25T19:15:04.866Z,68.60
2019-04-25T19:17:34.194Z,68.90
2019-04-25T19:20:02.803Z,69.10
2019-04-25T19:22:31.383Z,69.50
2019-04-25T19:24:59.971Z,68.10
2019-04-25T19:27:28.686Z,68.60
2019-04-25T19:29:57.263Z,69.10
2019-04-25T19:32:26.964Z,69.00
2019-04-25T19:34:55.647Z,69.40
2019-04-25T19:37:24.242Z,69.30
2019-04-25T19:40:12.578Z,70.40
2019-04-25T19:42:48.867Z,69.80
2019-04-25T19:45:17.634Z,69.80
2019-04-25T19:47:47.116Z,70.10
2019-04-25T19:50:15.895Z,70.10
2019-04-25T19:52:45.536Z,71.20
2019-04-25T19:55:14.674Z,71.10
2019-04-25T19:57:43.803Z,71.30
2019-04-25T20:00:12.974Z,71.30
2019-04-25T20:02:48.653Z,71.80
2019-04-25T20:05:41.893Z,71.90
2019-04-25T20:08:31.305Z,71.70
2019-04-25T20:11:08.344Z,72.40
2019-04-25T20:13:37.261Z,72.50
2019-04-25T20:16:05.878Z,72.10
2019-04-25T20:18:34.558Z,72.30
2019-04-25T20:21:03.334Z,72.00
2019-04-25T20:23:32.243Z,72.10
2019-04-25T20:26:01.141Z,71.90
2019-04-25T20:28:30.719Z,72.80
2019-04-25T20:30:59.299Z,73.40
2019-04-25T20:33:27.849Z,73.20
2019-04-25T20:35:56.428Z,73.00
2019-04-25T20:38:25.002Z,73.00
2019-04-25T20:40:53.914Z,72.90
2019-04-25T20:43:22.821Z,73.40
2019-04-25T20:45:52.408Z,73.00
2019-04-25T20:48:21.131Z,73.10
2019-04-25T20:50:50.366Z,73.40
2019-04-25T20:53:19.569Z,74.00
2019-04-25T20:55:48.731Z,74.60
2019-04-25T20:58:17.716Z,74.20
2019-04-25T21:00:49.641Z,73.90
2019-04-25T21:03:18.597Z,74.40
2019-04-25T21:05:49.650Z,73.90
2019-04-25T21:08:19.055Z,75.10
2019-04-25T21:10:47.967Z,74.30
2019-04-25T21:13:21.278Z,75.00
2019-04-25T21:16:09.126Z,74.20
2019-04-25T21:18:59.786Z,74.60
2019-04-25T21:21:28.523Z,74.80
2019-04-25T21:23:57.304Z,74.30
2019-04-25T21:26:26.039Z,74.30
2019-04-25T21:28:54.756Z,74.10
2019-04-25T21:31:23.435Z,74.20
2019-04-25T21:33:52.631Z,75.20
2019-04-25T21:36:21.653Z,75.30
2019-04-25T21:38:51.348Z,74.40
2019-04-25T21:41:38.782Z,74.20
2019-04-25T21:44:10.024Z,74.30
2019-04-25T21:46:38.639Z,74.50
2019-04-25T21:49:07.787Z,74.90
2019-04-25T21:51:36.351Z,75.70
2019-04-25T21:54:04.928Z,75.20
2019-04-25T21:56:34.204Z,74.50
2019-04-25T21:59:04.020Z,74.60
2019-04-25T22:01:35.604Z,75.20
2019-04-25T22:04:05.203Z,74.70
2019-04-25T22:06:34.519Z,75.30
2019-04-25T22:09:05.085Z,75.30
2019-04-25T22:11:33.973Z,76.00
2019-04-25T22:14:03.421Z,75.70
2019-04-25T22:16:32.591Z,76.00
2019-04-25T22:19:02.047Z,74.80
2019-04-25T22:21:37.978Z,74.90
2019-04-25T22:24:08.671Z,75.00
2019-04-25T22:26:31.756Z,75.10
2019-04-25T22:29:01.305Z,75.50
2019-04-25T22:31:35.019Z,75.00
2019-04-25T22:34:14.624Z,76.70
2019-04-25T22:36:43.891Z,75.40
2019-04-25T22:39:12.807Z,75.80
2019-04-25T22:41:46.270Z,76.10
2019-04-25T22:44:15.496Z,76.00
2019-04-25T22:46:44.783Z,75.90
2019-04-25T22:49:13.611Z,75.20
2019-04-25T22:51:42.255Z,75.50
2019-04-25T22:54:11.781Z,75.30
2019-04-25T22:56:40.438Z,75.30
2019-04-25T22:59:11.115Z,75.50
2019-04-25T23:01:57.846Z,75.50
2019-04-25T23:05:04.662Z,76.70
2019-04-25T23:07:25.398Z,76.80
2019-04-25T23:09:54.349Z,76.30
2019-04-25T23:12:23.570Z,76.80
2019-04-25T23:14:52.224Z,77.60
2019-04-25T23:17:21.043Z,77.10
2019-04-25T23:19:50.280Z,77.30
2019-04-25T23:22:18.927Z,77.70
2019-04-25T23:25:02.261Z,77.50
2019-04-25T23:27:43.447Z,77.30
2019-04-25T23:30:14.819Z,78.00
2019-04-25T23:32:43.951Z,78.60
2019-04-25T23:35:23.499Z,78.60
2019-04-25T23:37:43.082Z,77.90
2019-04-25T23:40:11.823Z,78.60
2019-04-25T23:42:40.539Z,79.00
2019-04-25T23:45:10.357Z,78.10
2019-04-25T23:47:39.208Z,78.90
2019-04-25T23:50:08.713Z,78.50
2019-04-25T23:52:37.510Z,78.80
2019-04-25T23:55:06.740Z,78.00
2019-04-25T23:57:36.624Z,78.50
